Charlottetown, Canada
Current Conditions -  °F | °C
As of 6:00 AM on Friday 24 Oct 2014 (Local Time) from CYYG Reporting Station
Rain Showers Rain Showers  
Wind Chill: 10°   Ceiling: 600
Heat Index: 10°   Visibility: 12mi
Dew Point:   Wind: 22mph
Humidity: 94%   Direction: 50°NE
Pressure: 29.7"   Gusts: 33mph
Location:  46.24°N, 63.13°W
Report Text: CYYG 240900Z 05019G29KT 12SM -SHRA BKN006 BKN020 OVC045 10/09 A2970 RMK SF6SC1SC1 SLP058
Loading
Personal Weather Stations






























Interactive Weather Map New forecast layout! Learn more

10-Day Weather Forecast

Advertisements
Track Severe Weather on mobile